createdAt,value
2023-10-19T00:02:01.060Z,0.95
2023-10-19T00:08:16.012Z,0.70
2023-10-19T00:14:19.850Z,0.63
2023-10-19T00:20:50.434Z,0.68
2023-10-19T00:26:56.237Z,0.95
2023-10-19T00:33:04.957Z,0.65
2023-10-19T00:39:16.045Z,0.60
2023-10-19T00:45:30.243Z,0.60
2023-10-19T00:51:43.854Z,0.50
2023-10-19T00:57:50.165Z,0.80
2023-10-19T01:03:57.494Z,0.93
2023-10-19T01:10:03.165Z,0.70
2023-10-19T01:16:07.212Z,0.60
2023-10-19T01:22:17.842Z,0.75
2023-10-19T01:28:26.690Z,0.70
2023-10-19T01:34:30.355Z,0.60
2023-10-19T01:40:35.206Z,0.77
2023-10-19T01:46:40.204Z,0.68
2023-10-19T01:52:45.692Z,0.70
2023-10-19T01:58:49.667Z,0.75
2023-10-19T02:11:19.330Z,0.60
2023-10-19T02:17:25.154Z,0.70
2023-10-19T02:23:29.118Z,0.70
2023-10-19T02:29:37.340Z,0.90
2023-10-19T02:35:41.964Z,0.70
2023-10-19T02:41:46.335Z,0.60
2023-10-19T02:47:51.762Z,0.50
2023-10-19T02:53:55.356Z,0.50
2023-10-19T03:00:00.114Z,1.33
2023-10-19T03:06:08.815Z,0.85
2023-10-19T03:12:14.923Z,0.70
2023-10-19T03:18:19.418Z,0.60
2023-10-19T03:24:38.116Z,0.57
2023-10-19T03:30:41.948Z,0.88
2023-10-19T03:36:45.410Z,0.70
2023-10-19T03:42:50.165Z,0.77
2023-10-19T03:48:53.808Z,0.93
2023-10-19T03:54:58.986Z,0.90
2023-10-19T04:01:06.557Z,1.13
2023-10-19T04:07:19.747Z,1.65
2023-10-19T04:13:23.355Z,1.30
2023-10-19T04:19:29.988Z,0.77
2023-10-19T04:25:33.593Z,1.08
2023-10-19T04:31:38.230Z,1.00
2023-10-19T04:37:44.121Z,1.10
2023-10-19T04:43:51.689Z,0.60
2023-10-19T04:49:56.702Z,0.75
2023-10-19T04:56:02.057Z,1.00
2023-10-19T05:02:06.982Z,1.60
2023-10-19T05:08:14.097Z,1.27
2023-10-19T05:14:19.265Z,2.22
2023-10-19T05:20:22.851Z,2.10
2023-10-19T05:26:27.301Z,1.67
2023-10-19T05:32:32.395Z,2.03
2023-10-19T05:38:35.988Z,1.65
2023-10-19T05:44:39.510Z,1.77
2023-10-19T05:50:45.167Z,1.70
2023-10-19T05:56:49.573Z,1.90
2023-10-19T06:02:53.413Z,1.55
2023-10-19T06:08:58.285Z,1.42
2023-10-19T06:15:02.469Z,1.30
2023-10-19T06:21:06.288Z,2.17
2023-10-19T06:27:11.230Z,1.65
2023-10-19T06:33:14.954Z,1.50
2023-10-19T06:39:19.142Z,1.92
2023-10-19T06:45:25.408Z,1.80
2023-10-19T06:51:28.826Z,2.03
2023-10-19T06:57:32.323Z,1.77
2023-10-19T07:03:38.020Z,2.05
2023-10-19T07:09:42.370Z,1.77
2023-10-19T07:15:48.009Z,2.15
2023-10-19T07:22:00.333Z,1.70
2023-10-19T07:28:04.493Z,1.83
2023-10-19T07:34:09.743Z,3.00
2023-10-19T07:40:15.772Z,2.08
2023-10-19T07:46:19.768Z,2.25
2023-10-19T07:52:24.210Z,2.20
2023-10-19T07:58:29.172Z,2.10
2023-10-19T08:04:32.848Z,2.25
2023-10-19T08:10:36.846Z,2.25
2023-10-19T08:16:42.988Z,1.80
2023-10-19T08:22:47.948Z,2.83
2023-10-19T08:28:52.694Z,2.17
2023-10-19T08:34:57.739Z,2.75
2023-10-19T08:41:01.432Z,1.83
2023-10-19T08:47:06.541Z,2.00
2023-10-19T08:53:15.086Z,2.67
2023-10-19T08:59:18.661Z,2.33
2023-10-19T09:05:23.830Z,1.80
2023-10-19T09:11:29.008Z,1.95
2023-10-19T09:17:33.258Z,1.95
2023-10-19T09:23:38.057Z,2.40
2023-10-19T09:29:43.155Z,2.72
2023-10-19T09:35:49.277Z,2.05
2023-10-19T09:41:53.882Z,1.77
2023-10-19T09:47:59.096Z,1.70
2023-10-19T09:54:04.866Z,1.77
2023-10-19T10:00:13.229Z,2.05
2023-10-19T10:06:21.513Z,2.50
2023-10-19T10:12:25.785Z,1.80
2023-10-19T10:18:30.221Z,1.90
2023-10-19T10:24:35.965Z,1.58
2023-10-19T10:30:39.461Z,1.45
2023-10-19T10:37:04.513Z,1.48
2023-10-19T10:43:11.631Z,1.52
2023-10-19T10:49:17.464Z,1.60
2023-10-19T10:55:21.013Z,1.75
2023-10-19T11:01:34.136Z,1.80
2023-10-19T11:07:38.125Z,1.50
2023-10-19T11:13:42.155Z,1.58
2023-10-19T11:19:47.027Z,1.48
2023-10-19T11:26:00.475Z,1.20
2023-10-19T11:32:04.123Z,1.35
2023-10-19T11:38:09.041Z,1.30
2023-10-19T11:44:12.605Z,1.48
2023-10-19T11:50:16.751Z,1.20
2023-10-19T11:56:22.207Z,1.60
2023-10-19T12:02:26.056Z,1.25
2023-10-19T12:08:29.672Z,1.67
2023-10-19T12:14:35.418Z,1.48
2023-10-19T12:20:38.896Z,1.30
2023-10-19T12:26:44.852Z,1.55
2023-10-19T12:32:50.756Z,1.23
2023-10-19T12:38:55.858Z,2.00
2023-10-19T12:45:00.727Z,1.60
2023-10-19T12:51:08.092Z,1.90
2023-10-19T12:57:11.677Z,1.70
2023-10-19T13:03:17.267Z,1.63
2023-10-19T13:09:23.930Z,1.80
2023-10-19T13:15:32.027Z,2.05
2023-10-19T13:21:35.480Z,1.52
2023-10-19T13:27:42.635Z,1.02
2023-10-19T13:33:47.360Z,2.60
2023-10-19T13:39:51.498Z,2.00
2023-10-19T13:45:56.553Z,2.33
2023-10-19T13:52:00.281Z,1.40
2023-10-19T13:58:03.733Z,2.08
2023-10-19T14:04:08.743Z,1.20
2023-10-19T14:10:15.087Z,1.50
2023-10-19T14:16:18.717Z,1.42
2023-10-19T14:22:24.089Z,1.15
2023-10-19T14:28:29.005Z,2.30
2023-10-19T14:34:32.777Z,1.70
2023-10-19T14:40:38.057Z,2.45
2023-10-19T14:46:41.627Z,2.22
2023-10-19T14:52:45.287Z,2.05
2023-10-19T14:58:50.151Z,2.38
2023-10-19T15:04:53.613Z,1.95
2023-10-19T15:10:57.778Z,2.47
2023-10-19T15:17:02.988Z,1.60
2023-10-19T15:23:06.794Z,2.90
2023-10-19T15:29:10.733Z,2.20
2023-10-19T15:35:22.061Z,1.80
2023-10-19T15:41:26.051Z,1.92
2023-10-19T15:47:29.718Z,2.25
2023-10-19T15:53:35.607Z,2.08
2023-10-19T15:59:39.077Z,2.10
2023-10-19T16:05:42.490Z,2.30
2023-10-19T16:11:49.358Z,1.58
2023-10-19T16:17:52.841Z,1.50
2023-10-19T16:23:58.159Z,1.70
2023-10-19T16:30:05.808Z,1.90
2023-10-19T16:36:09.661Z,1.83
2023-10-19T16:42:13.131Z,2.10
2023-10-19T16:48:18.287Z,2.20
2023-10-19T16:54:21.741Z,1.95
2023-10-19T17:00:25.343Z,2.30
2023-10-19T17:06:30.306Z,2.05
2023-10-19T17:12:34.232Z,1.83
2023-10-19T17:18:38.973Z,1.83
2023-10-19T17:24:43.962Z,2.05
2023-10-19T17:30:48.180Z,2.22
2023-10-19T17:36:51.772Z,3.92
2023-10-19T17:42:56.644Z,3.33
2023-10-19T17:49:00.192Z,2.63
2023-10-19T17:55:03.914Z,2.90
2023-10-19T18:01:11.444Z,2.60
2023-10-19T18:07:15.578Z,3.25
2023-10-19T18:13:19.018Z,2.95
2023-10-19T18:19:23.893Z,2.95
2023-10-19T18:25:29.384Z,2.80
2023-10-19T18:31:33.105Z,2.90
2023-10-19T18:37:38.348Z,2.92
2023-10-19T18:43:41.835Z,3.05
2023-10-19T18:49:46.076Z,3.40
2023-10-19T18:55:53.636Z,3.38
2023-10-19T19:02:00.487Z,3.28
2023-10-19T19:08:04.080Z,3.22
2023-10-19T19:14:09.876Z,3.30
2023-10-19T19:20:13.729Z,3.83
2023-10-19T19:26:17.487Z,4.20
2023-10-19T19:32:22.383Z,3.90
2023-10-19T19:38:26.233Z,4.45
2023-10-19T19:44:30.086Z,4.35
2023-10-19T19:50:36.240Z,4.57
2023-10-19T19:56:40.334Z,4.63
2023-10-19T20:02:45.342Z,4.05
2023-10-19T20:08:50.488Z,4.40
2023-10-19T20:14:54.011Z,4.25
2023-10-19T20:20:57.515Z,3.92
2023-10-19T20:27:02.475Z,4.20
2023-10-19T20:33:08.716Z,3.40
2023-10-19T20:39:14.707Z,4.03
2023-10-19T20:45:19.785Z,3.88
2023-10-19T20:51:23.334Z,3.80
2023-10-19T20:57:26.827Z,3.35
2023-10-19T21:03:31.813Z,4.35
2023-10-19T21:09:35.635Z,3.75
2023-10-19T21:15:39.086Z,3.70
2023-10-19T21:21:44.010Z,4.28
2023-10-19T21:27:50.313Z,4.03
2023-10-19T21:33:54.031Z,3.88
2023-10-19T21:39:58.909Z,3.25
2023-10-19T21:46:04.006Z,4.03
2023-10-19T21:52:07.937Z,3.72
2023-10-19T21:58:12.952Z,4.30
2023-10-19T22:04:16.581Z,3.58
2023-10-19T22:10:20.627Z,3.85
2023-10-19T22:16:25.688Z,3.38
2023-10-19T22:22:29.883Z,3.60
2023-10-19T22:28:33.471Z,3.40
2023-10-19T22:34:38.573Z,3.30
2023-10-19T22:40:41.984Z,3.05
2023-10-19T22:46:46.153Z,3.60
2023-10-19T22:52:51.096Z,3.65
2023-10-19T22:58:56.937Z,2.80
2023-10-19T23:05:00.587Z,3.00
2023-10-19T23:11:09.514Z,2.78
2023-10-19T23:17:16.997Z,3.28
2023-10-19T23:23:23.160Z,2.92
2023-10-19T23:29:30.358Z,2.95
2023-10-19T23:35:33.916Z,2.92
2023-10-19T23:41:37.533Z,2.85
2023-10-19T23:47:42.719Z,2.92
2023-10-19T23:53:46.882Z,3.05
2023-10-19T23:59:53.104Z,2.58
